Viertel Memorial, MO

8:27 PM CDT on September 21, 2014 (GMT -0500)
Lake of the Woods | Change Station
CLOSE
Current Station
Personal Weather Station
Location: Boonville, MO
Elevation: 771 ft
Nearby Weather Stations

Elev 771 ft 38.95 °N, 92.76 °W | Updated 6 seconds ago

Clear
Clear
61.9 °F
Feels Like 61.9 °F
N
0.0
Wind Variable Wind from North
Gusts 0.0 mph

Today
High -- | Low -- °F
--% Chance of Precip.
Yesterday
High -- | Low -- °F
Precip. -- in
6:57 AM 7:09 PM
Waning Crescent, 4% visible
Pressure 30.16 in
Visibility 10.0 miles
Clouds Clear
Dew Point 51 °F
Humidity 67%
Rainfall 0.00 in
Snow Depth Not available.
UV 0 out of 12
Pollen 6.30 out of 12
Air Quality Not available.
Flu Activity Not available.
METAR KDMO 220053Z AUTO 34006KT 10SM CLR 16/11 A3017 RMK AO2 SLP212 T01610106

More Conditions Fewer Conditions

Pressure 30.16 in
Visibility 10.0 miles
Clouds Clear
Dew Point 51 °F
Humidity 67%
Rainfall 0.00 in
Snow Depth Not available.
UV 0 out of 12
Pollen 6.30 out of 12
Air Quality Not available.
Flu Activity Not available.
METAR KDMO 220053Z AUTO 34006KT 10SM CLR 16/11 A3017 RMK AO2 SLP212 T01610106

More Conditions Fewer Conditions

10-Day Weather Forecast

Almanac

Astronomy

Sep. 21, 2014 Rise Set
Actual Time 6:57 AM CDT 7:09 PM CDT
Civil Twilight 6:30 AM CDT 7:35 PM CDT
Nautical Twilight 5:59 AM CDT 8:07 PM CDT
Astronomical Twilight 5:27 AM CDT 8:38 PM CDT
Moon 4:32 AM CDT (9/21) 5:45 PM CDT (9/21)
Length of Visible Light 13h 05m
Length of Day
12h 11m
Tomorrow will be 2m 31s shorter.
Waning Crescent, 4% of the Moon is Illuminated
Today
Waning Crescent
Sep 24
New
Oct 1
First Quarter
Oct 8
Full
Oct 15
Last Quarter

Today's Extremes

State Highs State Lows

Community

WunderPhotos

Upload Photos

1,755,342 photos uploaded!

WunderBlogs® & News

Nearby

Snow Depth

Station Depth Elevation
No new snow has been reported.

Earthquake Activity

City Distance Mag. Time & Date
No recent earthquake activity has been reported nearby.
Minimum magnitude displayed is 2.5.

Coastal Water Temperatures

Place Temperature
No Stations Reporting

Nearby Weather Stations